createdAt,value
2023-04-26T00:00:23.413Z,6.42
2023-04-26T00:05:46.370Z,6.43
2023-04-26T00:10:49.427Z,6.40
2023-04-26T00:15:52.419Z,6.39
2023-04-26T00:20:56.022Z,6.38
2023-04-26T00:25:58.880Z,6.34
2023-04-26T00:31:01.791Z,6.31
2023-04-26T00:36:05.090Z,6.25
2023-04-26T00:41:07.929Z,6.21
2023-04-26T00:46:10.922Z,6.08
2023-04-26T00:51:14.387Z,5.97
2023-04-26T00:56:17.305Z,5.90
2023-04-26T01:01:20.247Z,5.81
2023-04-26T01:06:23.367Z,5.74
2023-04-26T01:11:26.887Z,5.58
2023-04-26T01:16:31.241Z,5.44
2023-04-26T01:21:34.666Z,5.40
2023-04-26T01:26:45.724Z,5.37
2023-04-26T01:31:49.148Z,5.36
2023-04-26T01:36:52.365Z,5.31
2023-04-26T01:41:58.723Z,5.29
2023-04-26T01:47:01.562Z,5.23
2023-04-26T01:52:04.554Z,5.22
2023-04-26T01:57:07.508Z,5.18
2023-04-26T02:02:10.871Z,5.16
2023-04-26T02:07:13.868Z,5.14
2023-04-26T02:12:17.121Z,5.13
2023-04-26T02:17:21.483Z,5.11
2023-04-26T02:22:25.479Z,5.08
2023-04-26T02:27:28.315Z,5.02
2023-04-26T02:32:31.210Z,5.00
2023-04-26T02:37:34.499Z,5.01
2023-04-26T02:42:37.838Z,5.04
2023-04-26T02:47:40.782Z,5.10
2023-04-26T02:52:43.752Z,5.17
2023-04-26T02:57:46.657Z,5.20
2023-04-26T03:02:49.649Z,5.24
2023-04-26T03:07:52.766Z,5.29
2023-04-26T03:12:55.590Z,5.36
2023-04-26T03:17:58.546Z,5.46
2023-04-26T03:23:01.626Z,5.54
2023-04-26T03:28:04.712Z,5.60
2023-04-26T03:33:07.750Z,5.66
2023-04-26T03:38:11.086Z,5.68
2023-04-26T03:43:14.068Z,5.66
2023-04-26T03:48:17.455Z,5.63
2023-04-26T03:53:20.386Z,5.55
2023-04-26T03:58:23.254Z,5.43
2023-04-26T04:03:26.343Z,5.28
2023-04-26T04:08:29.388Z,5.14
2023-04-26T04:13:32.209Z,5.00
2023-04-26T04:18:35.255Z,4.90
2023-04-26T04:23:38.772Z,4.81
2023-04-26T04:28:41.846Z,4.75
2023-04-26T04:33:44.820Z,4.72
2023-04-26T04:38:47.734Z,4.69
2023-04-26T04:43:51.092Z,4.71
2023-04-26T04:48:54.379Z,4.75
2023-04-26T04:53:57.788Z,4.78
2023-04-26T04:59:00.822Z,4.81
2023-04-26T05:04:03.994Z,4.86
2023-04-26T05:09:08.074Z,4.88
2023-04-26T05:14:11.342Z,4.90
2023-04-26T05:19:14.376Z,4.99
2023-04-26T05:24:17.231Z,5.04
2023-04-26T05:29:20.378Z,5.03
2023-04-26T05:34:24.742Z,5.05
2023-04-26T05:39:30.796Z,4.97
2023-04-26T05:44:33.768Z,4.89
2023-04-26T05:49:36.712Z,4.85
2023-04-26T05:54:39.546Z,4.79
2023-04-26T05:59:42.484Z,4.79
2023-04-26T06:04:46.434Z,4.75
2023-04-26T06:09:49.493Z,4.78
2023-04-26T06:14:52.426Z,4.80
2023-04-26T06:19:55.399Z,4.91
2023-04-26T06:24:58.456Z,5.16
2023-04-26T06:30:01.406Z,5.37
2023-04-26T06:35:05.253Z,5.65
2023-04-26T06:40:09.025Z,5.85
2023-04-26T06:45:12.695Z,5.97
2023-04-26T06:50:15.840Z,6.08
2023-04-26T06:55:19.108Z,6.29
2023-04-26T07:00:22.682Z,6.39
2023-04-26T07:05:25.953Z,6.49
2023-04-26T07:10:28.982Z,6.60
2023-04-26T07:15:32.833Z,6.59
2023-04-26T07:20:35.872Z,6.62
2023-04-26T07:25:38.917Z,6.81
2023-04-26T07:30:42.041Z,6.99
2023-04-26T07:35:44.933Z,7.06
2023-04-26T07:40:47.841Z,7.24
2023-04-26T07:45:50.793Z,7.30
2023-04-26T07:50:53.763Z,7.42
2023-04-26T07:55:56.649Z,7.57
2023-04-26T08:01:00.770Z,7.74
2023-04-26T08:06:04.134Z,7.77
2023-04-26T08:11:11.091Z,7.88
2023-04-26T08:16:14.069Z,7.96
2023-04-26T08:21:17.100Z,8.13
2023-04-26T08:26:20.118Z,8.48
2023-04-26T08:31:23.148Z,8.38
2023-04-26T08:36:26.299Z,8.45
2023-04-26T08:41:30.390Z,8.39
2023-04-26T08:46:38.691Z,8.39
2023-04-26T08:51:41.773Z,8.30
2023-04-26T08:56:44.578Z,8.31
2023-04-26T09:01:47.519Z,8.16
2023-04-26T09:06:51.132Z,8.00
2023-04-26T09:12:01.658Z,7.83
2023-04-26T09:17:04.757Z,7.82
2023-04-26T09:22:08.969Z,7.87
2023-04-26T09:27:12.437Z,8.08
2023-04-26T09:32:15.506Z,8.29
2023-04-26T09:37:18.390Z,8.50
2023-04-26T09:42:21.257Z,8.33
2023-04-26T09:47:24.301Z,8.19
2023-04-26T09:52:29.068Z,8.16
2023-04-26T09:57:31.889Z,8.40
2023-04-26T10:02:34.866Z,9.80
2023-04-26T10:07:37.793Z,9.90
2023-04-26T10:12:43.844Z,9.14
2023-04-26T10:17:46.716Z,8.75
2023-04-26T10:22:54.123Z,8.75
2023-04-26T10:27:56.969Z,9.12
2023-04-26T10:33:08.620Z,10.72
2023-04-26T10:38:11.597Z,10.39
2023-04-26T10:43:18.415Z,9.89
2023-04-26T10:48:31.880Z,9.52
2023-04-26T10:53:55.174Z,9.55
2023-04-26T11:04:17.929Z,8.98
2023-04-26T11:09:39.854Z,8.88
2023-04-26T11:14:43.236Z,8.90
2023-04-26T11:19:47.404Z,8.86
2023-04-26T11:24:50.458Z,9.21
2023-04-26T11:29:55.011Z,9.44
2023-04-26T11:35:00.962Z,9.22
2023-04-26T11:40:04.530Z,8.90
2023-04-26T11:45:08.786Z,8.59
2023-04-26T11:50:12.099Z,8.57
2023-04-26T11:55:15.039Z,8.93
2023-04-26T12:00:18.899Z,9.47
2023-04-26T12:05:32.476Z,9.49
2023-04-26T12:10:36.969Z,9.60
2023-04-26T12:15:40.131Z,10.14
2023-04-26T12:20:43.341Z,9.76
2023-04-26T12:25:55.154Z,9.52
2023-04-26T12:30:58.000Z,9.37
2023-04-26T12:36:11.952Z,9.39
2023-04-26T12:41:15.145Z,9.74
2023-04-26T12:46:18.074Z,10.06
2023-04-26T12:51:20.984Z,9.61
2023-04-26T12:56:24.847Z,9.07
2023-04-26T13:01:27.784Z,8.90
2023-04-26T13:06:30.650Z,8.91
2023-04-26T13:11:33.791Z,9.70
2023-04-26T13:16:36.896Z,9.91
2023-04-26T13:21:40.498Z,9.67
2023-04-26T13:26:43.433Z,9.31
2023-04-26T13:31:46.433Z,9.06
2023-04-26T13:36:49.321Z,9.00
2023-04-26T13:41:52.475Z,9.33
2023-04-26T13:46:56.536Z,9.67
2023-04-26T13:51:59.414Z,9.44
2023-04-26T13:57:03.270Z,9.28
2023-04-26T14:02:06.782Z,9.14
2023-04-26T14:07:09.887Z,9.07
2023-04-26T14:12:12.796Z,8.96
2023-04-26T14:17:15.858Z,9.02
2023-04-26T14:22:19.811Z,9.08
2023-04-26T14:27:22.914Z,9.22
2023-04-26T14:32:25.981Z,9.18
2023-04-26T14:37:29.277Z,9.13
2023-04-26T14:42:32.450Z,8.92
2023-04-26T14:47:35.473Z,8.80
2023-04-26T14:52:38.373Z,8.63
2023-04-26T14:57:41.180Z,8.62
2023-04-26T15:02:45.102Z,8.45
2023-04-26T15:07:48.102Z,8.50
2023-04-26T15:12:51.315Z,8.54
2023-04-26T15:17:54.302Z,8.50
2023-04-26T15:22:57.384Z,8.36
2023-04-26T15:28:00.307Z,8.54
2023-04-26T15:33:03.386Z,8.69
2023-04-26T15:38:07.315Z,8.52
2023-04-26T15:43:12.228Z,8.43
2023-04-26T15:48:15.258Z,8.26
2023-04-26T15:53:18.277Z,8.20
2023-04-26T15:58:21.319Z,8.25
2023-04-26T16:03:24.384Z,8.23
2023-04-26T16:08:39.853Z,8.19
2023-04-26T16:13:44.643Z,8.21
2023-04-26T16:18:47.525Z,8.15
2023-04-26T16:23:53.257Z,8.11
2023-04-26T16:28:56.177Z,8.07
2023-04-26T16:33:59.590Z,7.98
2023-04-26T16:39:02.605Z,7.91
2023-04-26T16:44:05.551Z,7.76
2023-04-26T16:49:10.160Z,7.76
2023-04-26T16:54:13.035Z,7.78
2023-04-26T16:59:15.921Z,7.77
2023-04-26T17:04:20.341Z,7.78
2023-04-26T17:09:23.534Z,7.79
2023-04-26T17:14:26.724Z,7.75
2023-04-26T17:19:29.609Z,7.72
2023-04-26T17:24:32.444Z,7.67
2023-04-26T17:29:35.427Z,7.65
2023-04-26T17:34:38.923Z,7.60
2023-04-26T17:39:42.073Z,7.57
2023-04-26T17:44:44.957Z,7.51
2023-04-26T17:49:47.840Z,7.47
2023-04-26T17:54:50.797Z,7.44
2023-04-26T17:59:53.755Z,7.43
2023-04-26T18:04:56.827Z,7.41
2023-04-26T18:09:59.745Z,7.40
2023-04-26T18:15:02.633Z,7.39
2023-04-26T18:20:06.770Z,7.39
2023-04-26T18:25:09.858Z,7.37
2023-04-26T18:30:14.756Z,7.37
2023-04-26T18:35:17.620Z,7.37
2023-04-26T18:40:20.450Z,7.33
2023-04-26T18:45:23.369Z,7.30
2023-04-26T18:50:27.030Z,7.26
2023-04-26T18:55:30.497Z,7.24
2023-04-26T19:00:33.468Z,7.22
2023-04-26T19:05:37.428Z,7.19
2023-04-26T19:10:40.412Z,7.16
2023-04-26T19:15:43.284Z,7.15
2023-04-26T19:20:46.386Z,7.13
2023-04-26T19:25:49.242Z,7.07
2023-04-26T19:30:53.542Z,6.96
2023-04-26T19:35:56.757Z,6.86
2023-04-26T19:41:01.295Z,6.77
2023-04-26T19:46:14.208Z,6.71
2023-04-26T19:51:17.676Z,6.66
2023-04-26T19:56:20.561Z,6.60
2023-04-26T20:01:23.514Z,6.54
2023-04-26T20:06:27.593Z,6.43
2023-04-26T20:11:30.586Z,6.30
2023-04-26T20:16:33.959Z,6.19
2023-04-26T20:21:37.498Z,6.09
2023-04-26T20:26:40.425Z,6.00
2023-04-26T20:31:43.629Z,5.89
2023-04-26T20:36:46.656Z,5.79
2023-04-26T20:41:49.775Z,5.70
2023-04-26T20:46:53.204Z,5.63
2023-04-26T20:51:56.292Z,5.56
2023-04-26T20:56:59.267Z,5.48
2023-04-26T21:02:02.953Z,5.38
2023-04-26T21:07:06.007Z,5.27
2023-04-26T21:12:08.969Z,5.19
2023-04-26T21:17:11.881Z,5.10
2023-04-26T21:22:14.764Z,4.97
2023-04-26T21:27:17.716Z,4.87
2023-04-26T21:32:20.543Z,4.80
2023-04-26T21:37:23.801Z,4.74
2023-04-26T21:42:26.801Z,4.68
2023-04-26T21:47:29.734Z,4.64
2023-04-26T21:52:32.702Z,4.61
2023-04-26T21:57:35.606Z,4.56
2023-04-26T22:02:39.453Z,4.53
2023-04-26T22:07:42.578Z,4.48
2023-04-26T22:12:45.941Z,4.43
2023-04-26T22:17:49.083Z,4.33
2023-04-26T22:22:52.327Z,4.23
2023-04-26T22:27:55.140Z,4.16
2023-04-26T22:32:59.846Z,4.13
2023-04-26T22:38:02.934Z,4.08
2023-04-26T22:43:06.156Z,4.06
2023-04-26T22:48:09.024Z,4.07
2023-04-26T22:53:11.935Z,4.06
2023-04-26T22:58:17.210Z,4.09
2023-04-26T23:03:21.173Z,4.11
2023-04-26T23:08:24.252Z,4.13
2023-04-26T23:13:27.153Z,4.14
2023-04-26T23:18:31.353Z,4.12
2023-04-26T23:23:34.378Z,4.08
2023-04-26T23:28:37.218Z,4.04
2023-04-26T23:33:40.039Z,3.99
2023-04-26T23:38:42.890Z,3.96
2023-04-26T23:43:46.015Z,3.89
2023-04-26T23:48:49.006Z,3.84
2023-04-26T23:53:51.818Z,3.78
2023-04-26T23:58:54.761Z,3.72
